Terminal Aerodrome Forecast
Issued by NWS Burlington, VT

Home | Current Version | Previous Version | Text Only | Print | Product List | Glossary On
Versions: 1 2 3 4 5 6 7 8 9 10 11 12 13 14 15
627
FTUS41 KBTV 171131
TAFBTV
TAF
KBTV 171131Z 1712/1812 16004KT P6SM SKC
     FM171600 19009G17KT P6SM SCT150=

USA.gov is the U.S. government's official web portal to all federal, state and local government web resources and services.